Time;durP1;ratioP1;P1;durP2;ratioP2;P2;SDS_P1;SDS_P2;PMS_P1;PMS_P2;Temp;Humidity;BMP_temperature;BMP_pressure;BME280_temperature;BME280_humidity;BME280_pressure;Samples;Min_cycle;Max_cycle;Signal;HPM_P1;HPM_P2
2022/04/08 00:02:23;;;;;;;4.80;1.43;;;;;;;8.55;64.34;95255.16;5032773;28;20630;-69
2022/04/08 00:04:48;;;;;;;4.20;1.40;;;;;;;8.48;64.28;95260.59;5032391;28;20198;-68
2022/04/08 00:07:14;;;;;;;1.90;1.43;;;;;;;8.56;63.98;95265.38;5014722;28;20193;-69
2022/04/08 00:09:39;;;;;;;1.63;1.53;;;;;;;8.52;64.14;95269.53;5032747;28;20183;-69
2022/04/08 00:12:05;;;;;;;7.23;1.83;;;;;;;8.45;64.51;95276.00;5032546;28;20344;-69
2022/04/08 00:14:32;;;;;;;4.57;1.75;;;;;;;8.54;64.23;95258.81;5031461;28;20398;-70
2022/04/08 00:16:57;;;;;;;3.33;1.47;;;;;;;8.56;64.02;95269.81;5032862;28;20216;-69
2022/04/08 00:19:23;;;;;;;4.27;1.43;;;;;;;8.64;63.86;95271.94;5032600;28;20186;-70
2022/04/08 00:21:48;;;;;;;5.17;1.33;;;;;;;8.73;63.65;95271.22;5032748;28;20591;-69
2022/04/08 00:24:14;;;;;;;7.13;1.30;;;;;;;8.57;63.76;95272.16;5032831;28;20186;-69
2022/04/08 00:26:41;;;;;;;2.57;1.30;;;;;;;8.64;63.31;95271.94;5014897;28;20192;-68
2022/04/08 00:29:07;;;;;;;2.83;1.30;;;;;;;8.64;64.01;95269.31;5032508;28;20533;-68
2022/04/08 00:31:33;;;;;;;7.13;1.37;;;;;;;8.54;63.25;95272.66;5032146;28;20277;-68
2022/04/08 00:33:58;;;;;;;4.27;1.53;;;;;;;8.63;63.24;95273.00;5032664;28;20186;-68
2022/04/08 00:36:23;;;;;;;3.13;1.27;;;;;;;8.58;62.74;95276.34;5032544;28;20342;-68
2022/04/08 00:38:49;;;;;;;1.90;1.13;;;;;;;8.49;63.40;95275.22;5032415;28;20179;-69
2022/04/08 00:41:15;;;;;;;2.63;1.37;;;;;;;8.47;62.75;95284.38;5032500;28;20706;-68
2022/04/08 00:43:40;;;;;;;7.30;1.93;;;;;;;8.63;62.65;95281.63;5032713;28;20190;-69
2022/04/08 00:46:07;;;;;;;1.93;1.17;;;;;;;8.70;62.49;95284.78;5031411;28;20179;-69
2022/04/08 00:48:33;;;;;;;3.80;1.87;;;;;;;8.61;62.98;95281.06;5032373;28;20235;-69
2022/04/08 00:51:00;;;;;;;5.40;1.30;;;;;;;8.65;63.28;95291.78;5032489;28;20261;-69
2022/04/08 00:53:27;;;;;;;4.10;1.10;;;;;;;8.63;63.26;95292.06;5014798;28;20277;-69
2022/04/08 00:55:52;;;;;;;6.47;1.80;;;;;;;8.59;63.94;95293.56;5032296;28;20215;-69
2022/04/08 00:58:18;;;;;;;6.10;1.80;;;;;;;8.52;64.14;95300.88;5032438;28;20245;-69
2022/04/08 01:00:44;;;;;;;4.77;1.23;;;;;;;8.50;63.54;95310.75;5031804;28;20201;-70
2022/04/08 01:03:09;;;;;;;4.10;1.37;;;;;;;8.42;63.72;95299.97;5032324;28;20186;-69
2022/04/08 01:05:35;;;;;;;5.30;1.60;;;;;;;8.34;64.30;95312.47;5032073;28;20195;-69
2022/04/08 01:08:02;;;;;;;7.00;1.77;;;;;;;8.40;64.31;95310.69;5032489;28;20693;-69
2022/04/08 01:10:28;;;;;;;3.90;1.83;;;;;;;8.34;64.59;95307.25;5014777;28;20265;-68
2022/04/08 01:12:53;;;;;;;4.53;1.47;;;;;;;8.35;64.14;95313.25;5032137;28;20262;-69
2022/04/08 01:15:21;;;;;;;3.63;1.50;;;;;;;8.32;64.06;95311.91;5033867;28;20182;-69
2022/04/08 01:17:47;;;;;;;7.10;1.70;;;;;;;8.26;63.75;95314.69;5035660;28;20261;-69
2022/04/08 01:20:13;;;;;;;3.63;1.23;;;;;;;8.28;63.69;95328.28;5036106;28;20257;-69
2022/04/08 01:22:39;;;;;;;3.73;1.43;;;;;;;8.24;63.81;95320.19;5036337;28;20183;-68
2022/04/08 01:25:06;;;;;;;3.13;1.30;;;;;;;8.15;64.17;95318.25;5035708;28;20233;-67
2022/04/08 01:27:32;;;;;;;3.23;1.53;;;;;;;8.21;63.38;95318.03;5035835;28;20186;-68
2022/04/08 01:29:58;;;;;;;3.13;1.30;;;;;;;8.21;63.04;95333.72;5034474;28;20244;-69
2022/04/08 01:32:24;;;;;;;3.20;1.27;;;;;;;8.20;63.39;95326.13;5035644;28;20185;-69
2022/04/08 01:34:50;;;;;;;7.80;1.57;;;;;;;8.19;63.41;95330.53;5035733;28;20198;-69
2022/04/08 01:37:16;;;;;;;3.47;1.30;;;;;;;8.17;63.37;95340.47;5035230;28;20292;-68
2022/04/08 01:39:42;;;;;;;5.23;1.50;;;;;;;8.29;63.10;95346.31;5035435;28;20712;-67
2022/04/08 01:42:08;;;;;;;5.67;1.57;;;;;;;8.14;63.10;95343.53;5018085;28;20189;-69
2022/04/08 01:44:35;;;;;;;3.13;1.30;;;;;;;8.07;63.05;95348.19;5035803;28;20214;-69
2022/04/08 01:47:00;;;;;;;2.47;1.23;;;;;;;8.23;63.63;95359.56;5035592;28;20195;-69
2022/04/08 01:49:25;;;;;;;2.80;1.30;;;;;;;8.40;63.27;95344.63;5035468;28;20242;-68
2022/04/08 01:51:51;;;;;;;3.93;1.67;;;;;;;8.25;62.96;95347.03;5035325;28;20191;-68
2022/04/08 01:54:17;;;;;;;4.13;1.20;;;;;;;8.23;63.95;95342.09;5035049;28;20183;-68
2022/04/08 01:56:43;;;;;;;1.70;1.20;;;;;;;8.31;63.42;95341.66;5035057;28;20218;-70
2022/04/08 01:59:08;;;;;;;1.83;1.13;;;;;;;8.22;63.38;95344.94;5017788;28;20186;-69
2022/04/08 02:01:33;;;;;;;4.83;1.47;;;;;;;8.11;63.74;95351.88;5034538;28;20830;-69
2022/04/08 02:03:59;;;;;;;4.50;1.53;;;;;;;8.09;64.12;95347.94;5034876;28;20278;-69
2022/04/08 02:06:25;;;;;;;8.33;1.50;;;;;;;8.08;64.06;95347.13;5034973;28;20198;-69
2022/04/08 02:08:50;;;;;;;2.03;1.37;;;;;;;8.04;64.21;95358.31;5035010;28;20245;-69
2022/04/08 02:11:16;;;;;;;4.27;1.30;;;;;;;7.93;64.27;95365.25;5035265;28;20190;-69
2022/04/08 02:13:41;;;;;;;3.47;1.20;;;;;;;7.96;63.87;95354.34;5017171;28;20182;-68
2022/04/08 02:16:07;;;;;;;2.10;1.10;;;;;;;7.86;63.50;95357.59;5017165;28;20612;-68
2022/04/08 02:18:32;;;;;;;6.13;1.50;;;;;;;7.94;63.58;95357.19;5033740;28;20638;-70
2022/04/08 02:20:58;;;;;;;4.93;1.40;;;;;;;7.86;63.40;95360.22;5034953;28;20182;-68
2022/04/08 02:23:23;;;;;;;5.03;1.53;;;;;;;7.84;63.60;95353.69;5034431;28;20191;-68
2022/04/08 02:25:49;;;;;;;3.27;1.10;;;;;;;7.90;63.64;95363.94;5034357;28;20190;-68
2022/04/08 02:28:14;;;;;;;2.03;1.40;;;;;;;7.84;63.66;95362.31;5016609;28;20194;-69
2022/04/08 02:30:40;;;;;;;3.37;1.40;;;;;;;7.76;63.78;95367.13;5033932;28;20214;-69
2022/04/08 02:33:05;;;;;;;3.37;1.40;;;;;;;7.74;64.31;95369.22;5017285;28;20272;-70
2022/04/08 02:35:31;;;;;;;1.73;1.20;;;;;;;7.85;63.84;95371.72;5034297;28;20194;-70
2022/04/08 02:37:57;;;;;;;1.33;1.20;;;;;;;7.81;63.94;95381.03;5034189;28;20201;-68
2022/04/08 02:40:23;;;;;;;2.77;1.40;;;;;;;7.81;64.62;95378.41;5034506;28;20641;-68
2022/04/08 02:42:48;;;;;;;4.20;0.90;;;;;;;7.88;64.01;95384.25;5034480;28;20308;-70
2022/04/08 02:45:14;;;;;;;3.37;1.20;;;;;;;7.81;64.45;95383.63;5034229;28;20194;-69
2022/04/08 02:47:44;;;;;;;5.13;1.60;;;;;;;7.84;64.42;95392.81;5034579;28;20186;-69
2022/04/08 02:50:10;;;;;;;5.17;1.50;;;;;;;7.91;64.34;95382.97;5034279;28;20210;-69
2022/04/08 02:52:36;;;;;;;4.63;1.43;;;;;;;7.84;64.44;95384.97;5034055;28;20295;-69
2022/04/08 02:55:02;;;;;;;2.73;1.17;;;;;;;7.96;64.65;95393.47;5033906;28;20194;-70
2022/04/08 02:57:27;;;;;;;2.00;1.20;;;;;;;7.96;65.00;95397.91;5034332;28;20253;-69
2022/04/08 02:59:53;;;;;;;4.60;1.43;;;;;;;8.07;64.51;95405.59;5033939;28;20186;-69
2022/04/08 03:02:21;;;;;;;5.77;1.43;;;;;;;8.03;64.43;95411.53;5033745;28;20222;-69
2022/04/08 03:04:46;;;;;;;2.73;1.40;;;;;;;8.04;64.40;95406.06;5015469;28;20183;-68
2022/04/08 03:07:12;;;;;;;4.27;1.50;;;;;;;7.84;64.83;95404.03;5033968;28;20187;-69
2022/04/08 03:09:37;;;;;;;2.20;1.10;;;;;;;7.85;65.29;95402.22;5034087;28;20186;-69
2022/04/08 03:12:04;;;;;;;3.37;1.50;;;;;;;7.96;64.90;95405.72;5034013;28;20193;-69
2022/04/08 03:14:29;;;;;;;4.27;1.30;;;;;;;7.92;65.12;95394.97;5015921;28;20202;-70
2022/04/08 03:16:55;;;;;;;4.37;1.60;;;;;;;7.95;64.94;95399.72;5033345;28;20237;-69
2022/04/08 03:19:20;;;;;;;2.67;1.30;;;;;;;7.91;64.17;95412.44;5034388;28;20256;-69
2022/04/08 03:21:46;;;;;;;2.20;1.03;;;;;;;7.75;64.46;95412.50;5033832;28;20237;-68
2022/04/08 03:24:12;;;;;;;2.67;1.40;;;;;;;7.72;64.09;95411.19;5033573;28;20225;-68
2022/04/08 03:26:38;;;;;;;3.57;1.40;;;;;;;7.78;63.44;95407.59;5033664;28;20649;-69
2022/04/08 03:29:04;;;;;;;2.73;1.60;;;;;;;7.67;62.98;95408.50;5033735;28;20179;-70
2022/04/08 03:31:29;;;;;;;2.90;1.30;;;;;;;7.46;62.87;95415.28;5033196;28;20194;-69
2022/04/08 03:33:55;;;;;;;6.50;1.65;;;;;;;7.49;62.55;95416.63;5031753;28;20777;-68
2022/04/08 03:36:20;;;;;;;1.70;1.20;;;;;;;7.59;62.44;95406.31;5032559;28;20214;-69
2022/04/08 03:38:46;;;;;;;3.20;1.80;;;;;;;7.45;62.41;95418.91;5033660;28;20174;-68
2022/04/08 03:41:11;;;;;;;3.80;1.30;;;;;;;7.41;62.50;95415.19;5033149;28;20182;-69
2022/04/08 03:43:36;;;;;;;2.00;1.23;;;;;;;7.38;61.97;95404.47;5033256;28;20240;-68
2022/04/08 03:46:02;;;;;;;4.30;1.50;;;;;;;7.47;61.97;95409.03;5014156;28;20428;-69
2022/04/08 03:48:28;;;;;;;3.70;1.47;;;;;;;7.48;62.07;95412.41;5013933;28;20399;-69
2022/04/08 03:50:54;;;;;;;2.35;1.33;;;;;;;7.51;61.86;95414.56;5031636;28;20402;-69
2022/04/08 03:53:19;;;;;;;3.80;1.60;;;;;;;7.45;61.99;95400.69;5031874;28;20444;-69
2022/04/08 03:55:45;;;;;;;3.15;1.52;;;;;;;7.52;61.86;95398.66;5014295;28;20905;-68
2022/04/08 03:58:11;;;;;;;5.40;1.38;;;;;;;7.61;61.53;95419.13;5031559;28;20904;-69
2022/04/08 04:00:40;;;;;;;4.03;1.40;;;;;;;7.63;61.89;95419.66;5031428;28;20395;-69
2022/04/08 04:03:05;;;;;;;4.30;1.40;;;;;;;7.57;61.90;95429.25;5031727;28;20445;-70
2022/04/08 04:05:34;;;;;;;4.70;1.70;;;;;;;7.62;61.36;95437.13;5031575;28;20419;-69
2022/04/08 04:08:00;;;;;;;5.40;1.67;;;;;;;7.77;61.01;95434.72;4996083;28;20458;-69
2022/04/08 04:10:27;;;;;;;3.15;1.33;;;;;;;7.73;61.03;95431.03;5013974;28;20395;-68
2022/04/08 04:12:53;;;;;;;3.28;1.38;;;;;;;7.61;60.75;95426.94;5031110;28;20395;-68
2022/04/08 04:15:19;;;;;;;5.63;1.48;;;;;;;7.58;60.78;95432.66;5031580;28;20403;-69
2022/04/08 04:17:45;;;;;;;2.53;1.38;;;;;;;7.71;61.04;95429.66;5031348;28;20399;-70
2022/04/08 04:20:12;;;;;;;4.63;1.45;;;;;;;7.74;60.93;95432.59;5031337;28;20451;-70
2022/04/08 04:22:37;;;;;;;4.05;1.50;;;;;;;7.59;61.13;95437.59;5013901;28;20802;-70
2022/04/08 04:25:04;;;;;;;2.97;1.40;;;;;;;7.75;60.77;95443.78;5013553;28;20399;-69
2022/04/08 04:27:29;;;;;;;4.85;1.50;;;;;;;7.73;60.79;95446.66;5031555;28;20406;-70
2022/04/08 04:29:55;;;;;;;3.45;1.38;;;;;;;7.73;60.37;95440.66;5030806;28;20727;-70
2022/04/08 04:32:20;;;;;;;3.43;1.47;;;;;;;7.79;60.81;95448.31;5031443;28;20415;-70
2022/04/08 04:34:45;;;;;;;4.28;1.52;;;;;;;7.85;60.97;95443.94;5030784;28;20399;-69
2022/04/08 04:37:11;;;;;;;4.00;1.57;;;;;;;7.68;61.32;95441.38;5012868;28;20743;-70
2022/04/08 04:39:37;;;;;;;4.03;1.48;;;;;;;7.70;61.03;95439.31;5031674;28;20387;-69
2022/04/08 04:42:03;;;;;;;3.40;1.40;;;;;;;7.86;60.91;95437.69;5031376;28;20403;-70
2022/04/08 04:44:29;;;;;;;4.65;1.50;;;;;;;7.78;60.61;95430.28;5031172;28;20742;-69
2022/04/08 04:46:55;;;;;;;2.95;1.48;;;;;;;7.77;61.17;95439.13;5031426;28;20417;-69
2022/04/08 04:49:22;;;;;;;3.20;1.30;;;;;;;7.81;61.00;95440.22;5031492;28;21098;-69
2022/04/08 04:51:49;;;;;;;5.32;1.67;;;;;;;7.73;61.47;95438.84;5035166;28;20469;-69
2022/04/08 04:54:14;;;;;;;5.38;1.65;;;;;;;7.94;61.25;95445.09;5035471;28;20379;-69
2022/04/08 04:56:39;;;;;;;3.97;1.57;;;;;;;7.88;61.00;95438.22;5035007;28;20486;-69
2022/04/08 04:59:05;;;;;;;5.13;1.50;;;;;;;7.73;61.18;95438.06;5035034;28;20391;-69
2022/04/08 05:01:30;;;;;;;3.23;1.30;;;;;;;7.85;61.25;95433.50;5034774;28;20418;-69
2022/04/08 05:03:55;;;;;;;5.63;1.40;;;;;;;7.81;61.34;95430.59;5035001;28;20410;-69
2022/04/08 05:06:21;;;;;;;5.43;1.50;;;;;;;7.89;61.65;95440.59;5017185;28;20407;-69
2022/04/08 05:08:46;;;;;;;3.30;1.50;;;;;;;7.69;61.85;95432.50;5035244;28;20395;-69
2022/04/08 05:11:12;;;;;;;2.60;1.10;;;;;;;7.65;61.99;95420.19;5034981;28;20395;-68
2022/04/08 05:13:37;;;;;;;4.93;1.30;;;;;;;7.81;61.99;95429.78;5034548;28;20474;-70
2022/04/08 05:16:03;;;;;;;4.33;1.33;;;;;;;8.05;61.74;95431.13;5034476;28;20415;-68
2022/04/08 05:18:28;;;;;;;3.10;1.37;;;;;;;8.02;61.68;95429.03;5017725;28;20461;-69
2022/04/08 05:20:53;;;;;;;5.88;1.60;;;;;;;8.13;61.15;95429.94;5017474;28;20391;-69
2022/04/08 05:23:19;;;;;;;2.40;1.33;;;;;;;7.89;61.46;95438.00;5034052;28;20924;-69
2022/04/08 05:25:45;;;;;;;2.85;1.45;;;;;;;8.30;60.48;95441.88;5017116;28;20407;-69
2022/04/08 05:28:15;;;;;;;3.13;1.33;;;;;;;7.97;61.47;95447.22;5034358;28;20397;-68
2022/04/08 05:30:41;;;;;;;4.05;1.50;;;;;;;7.80;62.06;95442.03;5033240;28;20405;-68
2022/04/08 05:33:06;;;;;;;3.70;1.30;;;;;;;8.16;61.64;95448.50;5034492;28;20473;-69
2022/04/08 05:35:32;;;;;;;3.83;1.30;;;;;;;7.96;62.96;95456.09;5033856;28;20885;-69
2022/04/08 05:37:57;;;;;;;4.70;1.50;;;;;;;8.14;62.34;95447.13;5034528;28;20403;-68
2022/04/08 05:40:22;;;;;;;4.03;1.20;;;;;;;8.17;62.08;95450.06;5034456;28;20391;-69
2022/04/08 05:42:49;;;;;;;5.07;1.50;;;;;;;8.31;61.66;95463.56;5034619;28;20873;-68
2022/04/08 05:45:18;;;;;;;3.45;1.23;;;;;;;8.04;62.58;95457.47;5034000;28;20563;-69
2022/04/08 05:47:44;;;;;;;4.38;1.42;;;;;;;8.31;62.05;95453.91;5034492;28;20437;-68
2022/04/08 05:50:09;;;;;;;3.20;1.40;;;;;;;8.33;61.80;95464.09;5034292;28;20467;-68
2022/04/08 05:52:35;;;;;;;3.50;1.20;;;;;;;8.44;61.32;95454.56;5016504;28;20399;-69
2022/04/08 05:55:00;;;;;;;3.45;1.30;;;;;;;8.36;61.91;95462.84;5018261;28;20893;-69
2022/04/08 05:57:26;;;;;;;3.57;1.20;;;;;;;8.12;63.07;95467.50;5034263;28;20407;-69
2022/04/08 05:59:59;;;;;;;3.50;1.20;;;;;;;8.01;64.83;95466.59;5034078;28;20383;-69
2022/04/08 06:02:24;;;;;;;3.93;1.40;;;;;;;8.12;65.01;95464.88;5033629;28;20300;-68
2022/04/08 06:04:50;;;;;;;4.67;1.60;;;;;;;7.97;67.47;95464.72;5035293;28;20190;-68
2022/04/08 06:07:15;;;;;;;3.47;1.40;;;;;;;7.90;69.21;95460.44;5035341;28;20622;-67
2022/04/08 06:09:40;;;;;;;3.93;1.73;;;;;;;7.82;70.98;95463.47;5034942;28;20270;-69
2022/04/08 06:12:06;;;;;;;2.33;1.40;;;;;;;7.98;70.77;95456.63;5034707;28;20610;-68
2022/04/08 06:14:32;;;;;;;2.90;1.37;;;;;;;7.99;70.57;95454.78;5034503;28;20215;-67
2022/04/08 06:16:57;;;;;;;3.27;1.53;;;;;;;7.65;73.03;95451.50;5034867;28;20229;-69
2022/04/08 06:19:23;;;;;;;2.80;1.40;;;;;;;7.51;72.75;95444.03;5034932;28;20258;-67
2022/04/08 06:21:48;;;;;;;2.77;1.27;;;;;;;7.42;73.57;95444.66;5035288;28;20282;-68
2022/04/08 06:24:14;;;;;;;3.43;1.53;;;;;;;7.49;76.00;95446.09;5034524;28;20264;-68
2022/04/08 06:26:40;;;;;;;2.07;1.00;;;;;;;7.33;79.12;95438.28;5034207;28;20201;-68
2022/04/08 06:29:05;;;;;;;1.37;1.20;;;;;;;7.52;78.99;95442.97;5034367;28;20187;-68
2022/04/08 06:31:33;;;;;;;2.37;1.30;;;;;;;7.43;80.53;95431.41;5034350;28;20183;-69
2022/04/08 06:34:00;;;;;;;3.73;1.47;;;;;;;7.63;79.91;95427.50;5033402;28;20191;-69
2022/04/08 06:36:26;;;;;;;3.13;2.00;;;;;;;7.57;79.88;95424.03;5034024;28;20202;-69
2022/04/08 06:38:52;;;;;;;3.07;1.70;;;;;;;7.76;80.49;95435.75;5034497;28;20270;-69
2022/04/08 06:41:17;;;;;;;4.30;1.40;;;;;;;7.67;81.57;95424.16;5033018;28;20270;-69
2022/04/08 06:43:42;;;;;;;3.20;1.20;;;;;;;7.51;82.24;95425.78;5033754;28;20529;-67
2022/04/08 06:46:08;;;;;;;3.20;1.40;;;;;;;7.45;83.30;95424.13;5017028;28;20182;-68
2022/04/08 06:48:33;;;;;;;4.17;1.43;;;;;;;7.50;83.39;95418.19;5018026;28;20190;-66
2022/04/08 06:51:00;;;;;;;4.80;2.10;;;;;;;7.49;86.02;95419.22;5022053;28;20652;-67
2022/04/08 06:53:26;;;;;;;4.30;1.60;;;;;;;7.45;87.33;95416.31;5033593;28;20687;-68
2022/04/08 06:55:52;;;;;;;4.30;1.90;;;;;;;7.34;88.16;95421.63;5033335;28;20241;-68
2022/04/08 06:58:19;;;;;;;3.57;1.40;;;;;;;7.39;86.33;95413.88;5034548;28;20543;-68
2022/04/08 07:00:45;;;;;;;5.23;1.43;;;;;;;7.28;87.67;95417.38;5033578;28;20195;-67
2022/04/08 07:03:10;;;;;;;2.10;1.40;;;;;;;7.38;88.47;95420.09;5029105;28;20830;-68
2022/04/08 07:05:36;;;;;;;4.07;1.60;;;;;;;7.39;89.64;95416.47;5028646;28;20221;-66
2022/04/08 07:08:01;;;;;;;1.53;1.27;;;;;;;7.34;89.81;95411.19;5033345;28;20231;-66
2022/04/08 07:10:27;;;;;;;1.70;1.40;;;;;;;7.13;91.12;95410.13;5033451;28;20189;-66
2022/04/08 07:12:52;;;;;;;3.30;1.50;;;;;;;7.27;89.20;95410.56;5032540;28;20696;-66
2022/04/08 07:15:18;;;;;;;3.27;1.50;;;;;;;7.16;90.39;95412.25;5033554;28;20317;-66
2022/04/08 07:17:43;;;;;;;5.40;1.67;;;;;;;7.04;92.46;95414.16;5033274;28;20218;-66
2022/04/08 07:20:10;;;;;;;4.03;1.40;;;;;;;7.04;92.69;95401.13;5032152;28;20528;-66
2022/04/08 07:22:36;;;;;;;4.47;1.70;;;;;;;7.13;93.63;95404.13;5031580;28;20284;-67
2022/04/08 07:25:02;;;;;;;3.97;1.70;;;;;;;7.24;92.44;95406.66;5014985;28;20652;-67
2022/04/08 07:27:28;;;;;;;1.87;1.47;;;;;;;7.10;94.02;95394.97;5031066;28;20270;-67
2022/04/08 07:29:54;;;;;;;2.60;1.67;;;;;;;7.01;94.92;95397.19;5032199;28;20321;-67
2022/04/08 07:32:22;;;;;;;3.70;1.50;;;;;;;7.00;94.16;95387.00;5032105;28;20657;-68
2022/04/08 07:34:49;;;;;;;3.77;1.40;;;;;;;7.06;94.81;95389.44;5032922;28;20277;-68
2022/04/08 07:37:15;;;;;;;2.10;1.60;;;;;;;7.05;97.09;95382.66;5032870;28;20217;-68
2022/04/08 07:39:42;;;;;;;1.70;1.43;;;;;;;6.88;98.36;95381.88;5015184;28;20190;-67
2022/04/08 07:42:07;;;;;;;3.17;1.97;;;;;;;6.85;100.00;95384.19;5032599;28;20206;-68
2022/04/08 07:44:33;;;;;;;2.10;1.90;;;;;;;6.90;99.68;95379.84;5033242;28;20206;-69
2022/04/08 07:46:58;;;;;;;2.17;1.73;;;;;;;6.92;100.00;95377.75;5015151;28;20191;-68
2022/04/08 07:49:24;;;;;;;2.33;1.67;;;;;;;6.89;100.00;95373.03;5033129;28;20240;-69
2022/04/08 07:51:49;;;;;;;2.67;1.80;;;;;;;7.13;100.00;95368.44;5032862;28;20198;-68
2022/04/08 07:54:14;;;;;;;4.43;2.10;;;;;;;7.10;100.00;95366.31;5032591;28;20194;-66
2022/04/08 07:56:40;;;;;;;4.00;1.90;;;;;;;7.25;100.00;95361.28;5032982;28;20619;-68
2022/04/08 07:59:05;;;;;;;1.13;1.13;;;;;;;7.30;99.10;95365.81;5032675;28;20261;-68
2022/04/08 08:01:30;;;;;;;1.90;1.60;;;;;;;7.24;100.00;95359.75;5032738;28;20230;-69
2022/04/08 08:03:56;;;;;;;3.37;1.60;;;;;;;7.59;97.50;95346.34;5031342;28;20278;-68
2022/04/08 08:06:21;;;;;;;2.50;1.30;;;;;;;7.43;100.00;95347.19;5032686;28;20190;-67
2022/04/08 08:08:46;;;;;;;1.57;1.47;;;;;;;7.77;97.23;95347.84;5033060;28;20268;-68
2022/04/08 08:11:13;;;;;;;2.07;1.50;;;;;;;7.83;96.19;95342.47;5032392;28;20195;-69
2022/04/08 08:13:39;;;;;;;1.77;1.40;;;;;;;7.76;98.33;95335.84;5031983;28;20185;-68
2022/04/08 08:16:07;;;;;;;2.40;1.20;;;;;;;7.86;99.66;95333.34;5033047;28;20604;-68
2022/04/08 08:18:33;;;;;;;1.50;1.40;;;;;;;7.78;98.54;95328.56;5032707;28;20242;-67
2022/04/08 08:20:58;;;;;;;4.77;1.40;;;;;;;8.01;97.28;95324.91;5032428;28;20270;-67
2022/04/08 08:23:23;;;;;;;3.77;2.37;;;;;;;8.12;96.66;95321.34;5032415;28;20270;-67
2022/04/08 08:25:49;;;;;;;1.60;1.50;;;;;;;8.05;94.05;95311.13;5031421;28;20543;-68
2022/04/08 08:28:14;;;;;;;1.50;1.40;;;;;;;8.10;93.08;95305.16;5032539;28;20206;-67
2022/04/08 08:30:40;;;;;;;1.40;1.20;;;;;;;7.86;94.30;95299.44;5030665;28;20182;-68
2022/04/08 08:33:06;;;;;;;1.50;0.80;;;;;;;7.94;94.98;95302.41;5032005;28;20218;-67
2022/04/08 08:35:33;;;;;;;1.03;1.00;;;;;;;7.84;95.06;95293.69;5032141;28;20540;-68
2022/04/08 08:37:59;;;;;;;1.17;1.07;;;;;;;7.82;98.34;95303.56;5032399;28;20186;-67
2022/04/08 08:40:25;;;;;;;1.03;1.03;;;;;;;8.04;96.65;95300.91;5032551;28;20240;-68
2022/04/08 08:42:50;;;;;;;1.90;1.50;;;;;;;8.09;97.53;95295.75;5031919;28;20183;-68
2022/04/08 08:45:17;;;;;;;1.17;1.13;;;;;;;8.13;96.92;95294.22;5032173;28;20217;-69
2022/04/08 08:47:47;;;;;;;2.20;1.27;;;;;;;7.97;97.10;95293.28;5031541;28;20182;-68
2022/04/08 08:50:13;;;;;;;1.53;1.20;;;;;;;8.25;95.15;95281.78;5014201;28;20183;-68
2022/04/08 08:52:39;;;;;;;1.63;1.23;;;;;;;8.17;97.21;95277.81;5031850;28;20179;-68
2022/04/08 08:55:06;;;;;;;2.53;1.20;;;;;;;8.13;97.80;95278.56;5031708;28;20182;-68
2022/04/08 08:57:32;;;;;;;1.47;1.10;;;;;;;8.27;95.62;95277.13;5032035;28;20198;-69
2022/04/08 09:00:12;;;;;;;2.30;1.20;;;;;;;8.27;96.55;95277.13;4997350;28;20186;-68
2022/04/08 09:02:38;;;;;;;1.77;1.20;;;;;;;8.25;94.84;95271.34;5032132;28;20229;-68
2022/04/08 09:05:11;;;;;;;1.70;1.00;;;;;;;8.02;95.87;95266.47;5031492;28;20186;-67
2022/04/08 09:07:37;;;;;;;2.13;1.40;;;;;;;7.97;99.97;95258.59;5020950;28;20198;-68
2022/04/08 09:10:02;;;;;;;1.13;1.13;;;;;;;7.97;99.58;95256.00;5031632;28;20551;-70
2022/04/08 09:12:28;;;;;;;1.37;1.10;;;;;;;7.86;99.31;95252.47;5014064;28;20536;-68
2022/04/08 09:14:58;;;;;;;1.63;1.20;;;;;;;8.00;98.95;95245.84;5031579;28;20195;-67
2022/04/08 09:17:28;;;;;;;1.63;1.13;;;;;;;8.11;98.36;95237.06;5014036;28;20210;-68
2022/04/08 09:19:55;;;;;;;2.00;1.37;;;;;;;7.94;99.28;95236.41;5031237;28;20197;-69
2022/04/08 09:22:27;;;;;;;2.10;1.33;;;;;;;8.05;100.00;95232.06;5031819;28;20274;-68
2022/04/08 09:24:52;;;;;;;1.67;1.43;;;;;;;8.15;100.00;95219.06;5031881;28;20591;-69
2022/04/08 09:27:17;;;;;;;1.10;1.10;;;;;;;8.17;99.87;95209.97;5031259;28;20218;-68
2022/04/08 09:29:44;;;;;;;1.03;1.03;;;;;;;8.16;100.00;95187.53;5013444;28;20190;-68
2022/04/08 09:32:15;;;;;;;3.27;1.20;;;;;;;8.13;99.15;95193.25;5031547;28;20252;-67
2022/04/08 09:34:41;;;;;;;2.53;1.20;;;;;;;7.95;100.00;95185.81;5029195;28;20191;-69
2022/04/08 09:37:11;;;;;;;0.90;0.90;;;;;;;7.90;98.63;95183.94;5034433;28;20786;-67
2022/04/08 09:39:52;;;;;;;1.00;1.00;;;;;;;7.81;99.41;95166.38;5034670;28;20182;-67
2022/04/08 09:42:17;;;;;;;0.97;0.97;;;;;;;7.77;100.00;95162.69;5035400;28;20167;-66
2022/04/08 09:44:43;;;;;;;1.20;1.20;;;;;;;7.75;98.55;95162.16;5034307;28;20274;-69
2022/04/08 09:47:08;;;;;;;1.23;1.23;;;;;;;7.90;98.19;95164.91;5034998;28;20178;-67
2022/04/08 09:49:35;;;;;;;0.97;0.97;;;;;;;7.69;100.00;95150.88;5035073;28;20183;-66
2022/04/08 09:52:06;;;;;;;1.00;1.00;;;;;;;7.58;100.00;95146.63;5034995;28;20191;-66
2022/04/08 09:54:33;;;;;;;1.30;1.20;;;;;;;7.44;98.63;95145.47;5034949;28;20637;-67
2022/04/08 09:57:00;;;;;;;1.23;1.20;;;;;;;7.45;100.00;95128.81;5034548;28;20206;-67
2022/04/08 09:59:29;;;;;;;1.50;1.37;;;;;;;7.40;100.00;95121.72;5035060;28;20186;-68
2022/04/08 10:01:58;;;;;;;1.53;1.20;;;;;;;7.58;100.00;95111.97;5032317;28;20615;-67
2022/04/08 10:04:25;;;;;;;1.37;1.27;;;;;;;7.71;100.00;95112.31;5034901;28;20187;-66
2022/04/08 10:06:50;;;;;;;1.20;1.20;;;;;;;7.80;100.00;95107.44;5035014;28;20241;-67
2022/04/08 10:09:19;;;;;;;2.73;1.33;;;;;;;7.70;100.00;95087.28;5034945;28;20183;-67
2022/04/08 10:11:57;;;;;;;1.67;1.67;;;;;;;7.56;100.00;95080.94;5034520;28;20641;-67
2022/04/08 10:14:47;;;;;;;1.17;1.17;;;;;;;7.20;100.00;95066.81;5034635;28;20187;-67
2022/04/08 10:17:14;;;;;;;2.17;2.03;;;;;;;6.98;100.00;95060.88;5016777;28;20345;-66
2022/04/08 10:19:39;;;;;;;1.73;1.60;;;;;;;6.94;100.00;95057.19;5033765;28;20178;-67
2022/04/08 10:22:17;;;;;;;1.97;1.87;;;;;;;7.05;100.00;95054.44;5034369;28;20191;-66
2022/04/08 10:24:56;;;;;;;1.80;1.70;;;;;;;7.06;100.00;95050.03;5034670;28;20241;-67
2022/04/08 10:27:34;;;;;;;2.60;1.97;;;;;;;6.79;100.00;95044.03;5022994;28;20182;-65
2022/04/08 10:30:00;;;;;;;2.10;1.90;;;;;;;6.45;100.00;95038.19;5033852;28;20190;-66
2022/04/08 10:32:37;;;;;;;1.80;1.70;;;;;;;6.25;100.00;95034.31;5032980;28;20336;-66
2022/04/08 10:35:19;;;;;;;1.10;1.10;;;;;;;6.53;100.00;95042.97;5034223;28;20185;-66
2022/04/08 10:38:06;;;;;;;1.00;1.00;;;;;;;6.62;100.00;95031.91;5034406;28;20575;-66
2022/04/08 10:40:36;;;;;;;1.53;1.00;;;;;;;6.65;100.00;95035.81;5034339;28;20186;-66
2022/04/08 10:43:07;;;;;;;1.40;1.13;;;;;;;6.61;100.00;95026.94;5034362;28;20190;-66
2022/04/08 10:45:33;;;;;;;1.03;1.03;;;;;;;6.56;100.00;95024.28;5034243;28;20280;-66
2022/04/08 10:48:18;;;;;;;1.57;1.37;;;;;;;6.49;100.00;95008.06;5033283;28;20656;-66
2022/04/08 10:50:44;;;;;;;1.80;1.33;;;;;;;6.29;100.00;95005.25;5033954;28;20190;-68
2022/04/08 10:53:18;;;;;;;1.93;1.13;;;;;;;6.79;100.00;94991.97;5033827;28;20171;-67
2022/04/08 10:56:04;;;;;;;1.27;1.27;;;;;;;6.67;100.00;94992.91;5033933;28;20174;-66
2022/04/08 10:58:32;;;;;;;1.23;1.23;;;;;;;6.60;100.00;94974.09;5033977;28;20175;-66
2022/04/08 11:00:57;;;;;;;2.00;1.70;;;;;;;6.68;100.00;94968.44;5033175;28;20703;-66
2022/04/08 11:03:29;;;;;;;1.40;1.40;;;;;;;6.55;100.00;94963.63;5016306;28;20186;-65
2022/04/08 11:05:55;;;;;;;2.00;1.40;;;;;;;6.53;100.00;94964.88;5033483;28;20190;-65
2022/04/08 11:08:25;;;;;;;2.73;1.90;;;;;;;6.47;100.00;94958.84;5033647;28;20179;-66
2022/04/08 11:11:00;;;;;;;1.10;1.10;;;;;;;6.49;100.00;94946.38;5016259;28;20186;-67
2022/04/08 11:13:26;;;;;;;3.77;2.70;;;;;;;6.35;100.00;94913.22;5033366;28;20186;-65
2022/04/08 11:15:52;;;;;;;3.87;2.50;;;;;;;6.19;100.00;94933.84;5033415;28;20523;-66
2022/04/08 11:18:18;;;;;;;2.07;1.93;;;;;;;6.37;100.00;94963.16;5032983;28;20170;-66
2022/04/08 11:20:51;;;;;;;1.80;1.70;;;;;;;6.52;100.00;94922.47;5014083;28;20653;-66
2022/04/08 11:23:30;;;;;;;5.43;3.27;;;;;;;6.09;100.00;94865.34;5029118;28;20222;-67
2022/04/08 11:25:55;;;;;;;2.27;2.07;;;;;;;6.22;100.00;94929.97;5023398;28;20182;-66
2022/04/08 11:28:22;;;;;;;1.60;1.50;;;;;;;6.31;100.00;94928.50;5031983;28;20190;-66
2022/04/08 11:30:55;;;;;;;2.93;1.63;;;;;;;6.29;100.00;94888.19;5030186;28;20536;-67
2022/04/08 11:33:21;;;;;;;5.80;4.23;;;;;;;6.47;100.00;94875.56;5032180;28;20633;-65
2022/04/08 11:35:47;;;;;;;2.70;2.50;;;;;;;5.98;100.00;94900.84;5030979;28;20182;-66
2022/04/08 11:38:17;;;;;;;2.10;2.00;;;;;;;6.22;100.00;94891.75;5032150;28;20633;-66